PCLO2: Pine Creek Lake
Data processed at Sun 12Mar2023 05:30 GMT
All information presented herein is the property of the government of the United States of America and may be revised or deleted at any time without prior notice.
Dissemination of this information without the expressed written consent of the Public Affairs Office, Tulsa District U.S. Army Corps of Engineers is strictly prohibited.
These data are gathered electronically and, as presented, have not undergone any form of quality control. These data are not guaranteed to be valid or correct.
Go to home page.
Go to station list.
Upstream stations:
Downstream station:Previous Day
Next Day
Current Day
SHEF ID: PCLO2 Pine Creek Lake
STATION TYPE: RESERVOIR
Flood Pool: Bottom = 438.00, Top = 480.00
PRECIP ELEVATION STORAGE TW-ELEV INFLOW RELEASE AIR-TEMP WIND-DIRWIND-SPEED REL-HUMID SOLAR-RAD VOLTAGE BAT-LOAD
in ft ac-ft ft cfs cfs F deg mph % W/m2 volt volt
Ccp-Rev Ccp-Rev Ccp-Rev Ccp-Rev Rev-Regi Rev-Regi Ccp-Rev Ccp-Rev Ccp-Rev Ccp-Rev Ccp-Rev Ccp-Rev Ccp-Rev
(US/Central)
03/11 00:00 0.00 461.38 207983 386.87 4897 4161 49.84 113.70 2.30 87.09 0.00 13.15 12.11
03/11 01:00 0.00 461.38 207983 386.89 4652 4161 49.39 123.50 1.60 89.32 0.00 13.15 12.15
03/11 02:00 0.00 461.39 208085 386.90 4652 4162 50.18 86.50 4.50 88.67 0.00 13.08 12.19
03/11 03:00 0.00 461.39 208085 386.88 4652 4162 50.97 119.40 6.10 89.07 0.00 13.15 12.09
03/11 04:00 0.00 461.40 208186 386.87 4407 4162 51.26 107.40 5.00 87.51 0.00 13.15 12.14
03/11 05:00 0.00 461.40 208186 386.87 4162 4162 50.97 106.20 6.70 87.79 0.00 13.15 12.10
03/11 06:00 0.00 461.39 208085 386.90 4653 4162 50.61 104.80 7.10 90.29 0.00 13.14 12.09
03/11 07:00 0.00 461.39 208085 386.87 4162 4162 50.63 109.80 7.30 91.91 0.00 13.15 12.12
03/11 08:00 0.00 461.41 208287 386.89 4162 4162 50.13 111.70 7.80 92.28 0.50 13.15 12.13
03/11 09:00 0.00 461.40 208186 386.89 4162 4162 49.33 119.50 7.80 98.17 25.70 13.15 12.12
03/11 10:00 0.00 461.40 208186 386.86 3426 4162 49.60 113.00 8.20 98.25 51.20 13.85 12.18
03/11 11:00 0.00 461.39 208085 386.88 3645 4162 50.23 105.60 6.00 99.94 74.40 14.23 12.25
03/11 12:00 0.00 461.36 207780 386.83 3876 4161 51.15 108.50 6.20 99.95 72.70 14.38 12.40
03/11 13:00 0.00 461.39 208085 386.89 3621 4162 52.61 125.60 7.30 99.95 103.80 14.36 12.38
03/11 14:00 0.00 461.39 208085 386.94 3612 4162 54.43 132.20 6.90 99.96 97.00 13.96 12.37
03/11 15:00 0.00 461.38 207983 386.87 4334 4161 56.50 136.10 6.20 99.96 74.90 13.97 12.36
03/11 16:00 0.00 461.37 207882 386.92 3369 4161 58.73 99.40 4.00 99.97 114.40 13.94 12.25
03/11 17:00 0.00 461.37 207882 386.85 3368 4161 60.85 43.80 5.30 99.51 187.10 13.21 12.34
03/11 18:00 0.00 461.36 207780 386.85 4334 4161 61.50 57.30 6.10 98.82 57.30 13.14 12.24
03/11 19:00 0.00 461.36 207780 386.87 3757 4161 59.70 83.50 5.50 99.94 0.00 13.14 12.10
03/11 20:00 0.00 461.39 208085 386.91 3998 4162 58.41 88.00 4.80 99.98 0.00 13.15 12.21
03/11 21:00 0.00 461.35 207679 386.82 3998 4160 58.03 73.10 5.80 99.97 0.00 13.15 12.20
03/11 22:00 0.02 461.36 207780 386.82 4239 4161 59.70 237.10 6.70 99.99 0.00 13.15 12.21
03/11 23:00 0.00 461.35 207679 386.86 2791 4160 60.12 354.70 3.50 99.98 0.00 13.15 12.21